YZX weather

CFB Greenwood
Greenwood, Nova Scotia, Canada

Public forecast

Using degrees Celsius for public forecast. Weather courtesy of forecast.io.

Current aviation weather report (METAR) for CFB Greenwood

Retrieved 2019/11/21 15:00 UTC (46 minutes ago):

CYZX 211500Z 02010G19KT 15SM BKN020 04/01 A2991 RMK SC7 SLP130

Aviation forecast (TAF) for CFB Greenwood

Retrieved 2019/11/21 12:33 UTC (3 hours ago):

TAF CYZX 211130Z 2112/2212 02010KT 5SM -SHRA BR BKN012 OVC020 TEMPO 2112/2115 P6SM -DZ SCT012 OVC020 FM211500 36012G22KT P6SM OVC015 FM212200 35010KT P6SM OVC020 BECMG 2202/2204 VRB03KT BKN020 FM220700 VRB03KT P6SM BKN020 BKN240 TEMPO 2207/2211 SCT020 BKN240 FM221100 VRB03KT P6SM SCT020 BKN140 RMK NXT FCST BY 211800Z